createdAt,value
2018-04-27T00:00:15.338Z,100
2018-04-27T00:01:17.719Z,100
2018-04-27T00:02:20.085Z,100
2018-04-27T00:03:22.546Z,100
2018-04-27T00:04:24.851Z,100
2018-04-27T00:05:27.602Z,100
2018-04-27T00:06:29.985Z,100
2018-04-27T00:07:32.369Z,100
2018-04-27T00:08:34.736Z,100
2018-04-27T00:09:37.111Z,100
2018-04-27T00:10:39.486Z,100
2018-04-27T00:11:41.867Z,100
2018-04-27T00:12:44.239Z,100
2018-04-27T00:13:46.620Z,100
2018-04-27T00:14:48.990Z,100
2018-04-27T00:15:51.375Z,100
2018-04-27T00:16:54.033Z,100
2018-04-27T00:17:56.409Z,100
2018-04-27T00:18:59.448Z,100
2018-04-27T00:20:01.837Z,100
2018-04-27T00:21:04.491Z,100
2018-04-27T00:22:06.880Z,100
2018-04-27T00:23:09.250Z,100
2018-04-27T00:24:11.625Z,100
2018-04-27T00:25:14.382Z,100
2018-04-27T00:26:16.764Z,100
2018-04-27T00:27:19.419Z,100
2018-04-27T00:28:21.799Z,100
2018-04-27T00:29:24.555Z,100
2018-04-27T00:30:26.940Z,100
2018-04-27T00:31:29.311Z,100
2018-04-27T00:32:31.700Z,100
2018-04-27T00:33:34.064Z,100
2018-04-27T00:34:36.726Z,100
2018-04-27T00:35:39.111Z,100
2018-04-27T00:36:41.482Z,100
2018-04-27T00:37:43.854Z,100
2018-04-27T00:38:46.621Z,100
2018-04-27T00:39:48.996Z,100
2018-04-27T00:40:51.380Z,100
2018-04-27T00:41:54.032Z,100
2018-04-27T00:42:56.410Z,100
2018-04-27T00:43:58.789Z,100
2018-04-27T00:45:01.154Z,100
2018-04-27T00:46:03.529Z,100
2018-04-27T00:47:06.474Z,100
2018-04-27T00:48:08.844Z,100
2018-04-27T00:49:11.500Z,100
2018-04-27T00:50:13.879Z,100
2018-04-27T00:51:16.544Z,100
2018-04-27T00:52:18.921Z,100
2018-04-27T00:53:21.293Z,100
2018-04-27T00:54:23.969Z,100
2018-04-27T00:55:26.348Z,100
2018-04-27T00:56:28.993Z,100
2018-04-27T00:57:31.374Z,100
2018-04-27T00:58:33.761Z,100
2018-04-27T00:59:36.128Z,100
2018-04-27T01:00:38.509Z,100
2018-04-27T01:01:40.887Z,100
2018-04-27T01:02:43.269Z,100
2018-04-27T01:03:45.951Z,100
2018-04-27T01:04:48.334Z,100
2018-04-27T01:05:51.090Z,100
2018-04-27T01:06:53.448Z,100
2018-04-27T01:07:55.828Z,100
2018-04-27T01:08:58.516Z,100
2018-04-27T01:10:00.892Z,100
2018-04-27T01:11:03.273Z,100
2018-04-27T01:12:05.646Z,100
2018-04-27T01:13:08.019Z,100
2018-04-27T01:14:10.404Z,100
2018-04-27T01:15:13.173Z,100
2018-04-27T01:16:15.537Z,100
2018-04-27T01:17:17.920Z,100
2018-04-27T01:18:20.296Z,100
2018-04-27T01:19:22.672Z,100
2018-04-27T01:20:25.052Z,100
2018-04-27T01:21:27.410Z,100
2018-04-27T01:22:29.783Z,100
2018-04-27T01:23:32.449Z,100
2018-04-27T01:24:34.825Z,100
2018-04-27T01:25:37.205Z,100
2018-04-27T01:26:40.250Z,100
2018-04-27T01:27:42.622Z,100
2018-04-27T01:28:45.005Z,100
2018-04-27T01:29:47.384Z,100
2018-04-27T01:30:49.738Z,100
2018-04-27T01:31:52.114Z,100
2018-04-27T01:32:54.499Z,100
2018-04-27T01:33:56.872Z,100
2018-04-27T01:34:59.249Z,100
2018-04-27T01:36:01.622Z,100
2018-04-27T01:37:04.002Z,100
2018-04-27T01:38:06.373Z,100
2018-04-27T01:39:08.747Z,100
2018-04-27T01:40:11.426Z,100
2018-04-27T01:41:13.794Z,100
2018-04-27T01:42:16.160Z,100
2018-04-27T01:43:18.541Z,100
2018-04-27T01:44:20.908Z,100
2018-04-27T01:45:23.575Z,100
2018-04-27T01:46:25.960Z,100
2018-04-27T01:47:28.339Z,100
2018-04-27T01:48:30.722Z,100
2018-04-27T01:49:33.106Z,100
2018-04-27T01:50:35.746Z,100
2018-04-27T01:51:38.125Z,100
2018-04-27T01:52:40.502Z,100
2018-04-27T01:53:42.879Z,100
2018-04-27T01:54:45.269Z,100
2018-04-27T01:55:47.958Z,100
2018-04-27T01:56:50.329Z,100
2018-04-27T01:57:52.708Z,100
2018-04-27T01:58:55.084Z,100
2018-04-27T01:59:57.464Z,100
2018-04-27T02:00:59.855Z,100
2018-04-27T02:02:02.614Z,100
2018-04-27T02:03:04.989Z,100
2018-04-27T02:04:07.657Z,100
2018-04-27T02:05:10.054Z,100
2018-04-27T02:06:12.691Z,100
2018-04-27T02:07:15.350Z,100
2018-04-27T02:08:17.737Z,100
2018-04-27T02:09:20.493Z,100
2018-04-27T02:10:22.869Z,100
2018-04-27T02:11:25.638Z,100
2018-04-27T02:12:28.298Z,100
2018-04-27T02:13:30.955Z,100
2018-04-27T02:14:33.616Z,100
2018-04-27T02:15:35.990Z,100
2018-04-27T02:16:38.370Z,100
2018-04-27T02:17:40.753Z,100
2018-04-27T02:18:43.126Z,100
2018-04-27T02:19:45.777Z,100
2018-04-27T02:20:49.111Z,100
2018-04-27T02:21:51.794Z,100
2018-04-27T02:22:54.178Z,100
2018-04-27T02:23:56.561Z,100
2018-04-27T02:24:58.942Z,100
2018-04-27T02:26:01.324Z,100
2018-04-27T02:27:03.970Z,100
2018-04-27T02:28:06.350Z,100
2018-04-27T02:29:08.728Z,100
2018-04-27T02:30:11.382Z,100
2018-04-27T02:31:14.333Z,100
2018-04-27T02:32:16.990Z,100
2018-04-27T02:33:20.043Z,100
2018-04-27T02:34:23.092Z,100
2018-04-27T02:35:26.046Z,100
2018-04-27T02:36:28.414Z,100
2018-04-27T02:37:30.785Z,100
2018-04-27T02:38:33.156Z,100
2018-04-27T02:39:35.537Z,100
2018-04-27T02:40:38.203Z,100
2018-04-27T02:41:40.590Z,100
2018-04-27T02:42:43.246Z,100
2018-04-27T02:43:46.010Z,100
2018-04-27T02:44:49.232Z,100
2018-04-27T02:45:51.901Z,100
2018-04-27T02:46:54.269Z,100
2018-04-27T02:47:57.603Z,100
2018-04-27T02:49:00.278Z,100
2018-04-27T02:50:02.715Z,100
2018-04-27T02:51:05.382Z,100
2018-04-27T02:52:08.716Z,100
2018-04-27T02:53:11.085Z,100
2018-04-27T02:54:13.754Z,100
2018-04-27T02:55:16.133Z,100
2018-04-27T02:56:18.787Z,100
2018-04-27T02:57:21.550Z,100
2018-04-27T02:58:24.504Z,100
2018-04-27T02:59:26.893Z,100
2018-04-27T03:00:29.649Z,100
2018-04-27T03:01:32.017Z,100
2018-04-27T03:02:34.402Z,100
2018-04-27T03:03:37.091Z,100
2018-04-27T03:04:39.454Z,100
2018-04-27T03:05:42.110Z,100
2018-04-27T03:06:44.479Z,100
2018-04-27T03:07:47.239Z,100
2018-04-27T03:08:49.603Z,100
2018-04-27T03:09:51.982Z,100
2018-04-27T03:10:55.328Z,100
2018-04-27T03:11:57.987Z,100
2018-04-27T03:13:00.950Z,100
2018-04-27T03:14:03.337Z,100
2018-04-27T03:15:05.994Z,100
2018-04-27T03:16:08.655Z,100
2018-04-27T03:17:11.033Z,100
2018-04-27T03:18:13.684Z,100
2018-04-27T03:19:16.057Z,100
2018-04-27T03:20:18.437Z,100
2018-04-27T03:21:20.806Z,100
2018-04-27T03:22:23.489Z,100
2018-04-27T03:23:25.865Z,100
2018-04-27T03:24:28.235Z,100
2018-04-27T03:25:31.283Z,100
2018-04-27T03:26:33.946Z,100
2018-04-27T03:27:36.325Z,100
2018-04-27T03:28:38.716Z,100
2018-04-27T03:29:41.086Z,100
2018-04-27T03:30:43.466Z,100
2018-04-27T03:31:46.418Z,100
2018-04-27T03:32:49.109Z,100
2018-04-27T03:33:51.475Z,100
2018-04-27T03:34:53.870Z,100
2018-04-27T03:35:56.624Z,100
2018-04-27T03:36:59.660Z,100
2018-04-27T03:38:02.036Z,100
2018-04-27T03:39:04.412Z,100
2018-04-27T03:40:06.796Z,100
2018-04-27T03:41:09.179Z,100
2018-04-27T03:42:11.546Z,100
2018-04-27T03:43:13.924Z,100
2018-04-27T03:44:16.306Z,100
2018-04-27T03:45:18.678Z,100
2018-04-27T03:46:21.056Z,100
2018-04-27T03:47:23.424Z,100
2018-04-27T03:48:25.802Z,100
2018-04-27T03:49:28.756Z,100
2018-04-27T03:50:31.126Z,100
2018-04-27T03:51:33.504Z,100
2018-04-27T03:52:35.878Z,100
2018-04-27T03:53:38.263Z,100
2018-04-27T03:54:40.645Z,100
2018-04-27T03:55:43.017Z,100
2018-04-27T03:56:45.685Z,100
2018-04-27T03:57:48.063Z,100
2018-04-27T03:58:50.459Z,100
2018-04-27T03:59:52.834Z,100
2018-04-27T04:00:55.196Z,100
2018-04-27T04:01:57.859Z,100
2018-04-27T04:03:00.235Z,100
2018-04-27T04:04:02.610Z,100
2018-04-27T04:05:04.989Z,100
2018-04-27T04:06:07.372Z,100
2018-04-27T04:07:09.746Z,100
2018-04-27T04:08:12.115Z,100
2018-04-27T04:09:14.493Z,100
2018-04-27T04:10:17.153Z,100
2018-04-27T04:11:19.524Z,100
2018-04-27T04:12:22.191Z,100
2018-04-27T04:13:24.944Z,100
2018-04-27T04:14:27.594Z,100
2018-04-27T04:15:29.977Z,100
2018-04-27T04:16:32.359Z,100
2018-04-27T04:17:34.735Z,100
2018-04-27T04:18:37.117Z,100
2018-04-27T04:19:39.485Z,100
2018-04-27T04:20:41.868Z,100
2018-04-27T04:21:44.250Z,100
2018-04-27T04:22:46.631Z,100
2018-04-27T04:23:49.288Z,100
2018-04-27T04:24:51.663Z,100
2018-04-27T04:25:54.306Z,100
2018-04-27T04:26:56.697Z,100
2018-04-27T04:27:59.069Z,100
2018-04-27T04:29:01.432Z,100
2018-04-27T04:30:04.093Z,100
2018-04-27T04:31:06.460Z,100
2018-04-27T04:32:08.843Z,100
2018-04-27T04:33:11.221Z,100
2018-04-27T04:34:13.885Z,100
2018-04-27T04:35:16.262Z,100
2018-04-27T04:36:18.642Z,100
2018-04-27T04:37:21.025Z,100
2018-04-27T04:38:23.843Z,100
2018-04-27T04:39:26.125Z,100
2018-04-27T04:40:28.494Z,100
2018-04-27T04:41:30.877Z,100
2018-04-27T04:42:33.254Z,100
2018-04-27T04:43:35.623Z,100
2018-04-27T04:44:38.001Z,100
2018-04-27T04:45:40.380Z,100
2018-04-27T04:46:42.761Z,100
2018-04-27T04:47:45.140Z,100
2018-04-27T04:48:47.514Z,100
2018-04-27T04:49:49.896Z,100
2018-04-27T04:50:52.274Z,100
2018-04-27T04:51:54.649Z,100
2018-04-27T04:52:57.017Z,100
2018-04-27T04:53:59.387Z,100
2018-04-27T04:55:01.767Z,100
2018-04-27T04:56:04.442Z,100
2018-04-27T04:57:07.096Z,100
2018-04-27T04:58:09.475Z,100
2018-04-27T04:59:12.133Z,100
2018-04-27T05:00:14.817Z,100
2018-04-27T05:01:17.481Z,100
2018-04-27T05:02:19.853Z,100
2018-04-27T05:03:22.236Z,100
2018-04-27T05:04:24.626Z,100
2018-04-27T05:05:26.994Z,100
2018-04-27T05:06:29.369Z,100
2018-04-27T05:07:32.030Z,100
2018-04-27T05:08:34.402Z,100
2018-04-27T05:09:36.777Z,100
2018-04-27T05:10:39.301Z,100
2018-04-27T05:11:41.532Z,100
2018-04-27T05:12:43.910Z,100
2018-04-27T05:13:46.681Z,100
2018-04-27T05:14:49.041Z,100
2018-04-27T05:15:51.419Z,100
2018-04-27T05:16:54.094Z,100
2018-04-27T05:17:56.458Z,100
2018-04-27T05:18:59.230Z,100
2018-04-27T05:20:01.606Z,100
2018-04-27T05:21:03.989Z,100
2018-04-27T05:22:06.362Z,100
2018-04-27T05:23:08.741Z,100
2018-04-27T05:24:11.114Z,100
2018-04-27T05:25:13.496Z,100
2018-04-27T05:26:15.862Z,100
2018-04-27T05:27:18.247Z,100
2018-04-27T05:28:20.622Z,100
2018-04-27T05:29:23.002Z,100
2018-04-27T05:30:25.386Z,100
2018-04-27T05:31:28.049Z,100
2018-04-27T05:32:30.707Z,100
2018-04-27T05:33:33.070Z,100
2018-04-27T05:34:35.726Z,100
2018-04-27T05:35:38.104Z,100
2018-04-27T05:36:41.059Z,100
2018-04-27T05:37:43.430Z,100
2018-04-27T05:38:45.813Z,100
2018-04-27T05:39:48.175Z,100
2018-04-27T05:40:50.566Z,100
2018-04-27T05:41:53.337Z,100
2018-04-27T05:42:56.008Z,100
2018-04-27T05:43:58.390Z,100
2018-04-27T05:45:00.769Z,100
2018-04-27T05:46:03.144Z,100
2018-04-27T05:47:05.524Z,100
2018-04-27T05:48:07.898Z,100
2018-04-27T05:49:10.275Z,100
2018-04-27T05:50:12.671Z,100
2018-04-27T05:51:15.419Z,100
2018-04-27T05:52:17.801Z,100
2018-04-27T05:53:20.157Z,100
2018-04-27T05:54:22.815Z,100
2018-04-27T05:55:25.195Z,100
2018-04-27T05:56:27.579Z,100
2018-04-27T05:57:30.515Z,100
2018-04-27T05:58:32.903Z,100
2018-04-27T05:59:35.560Z,100
2018-04-27T06:00:37.944Z,100
2018-04-27T06:01:40.605Z,100
2018-04-27T06:02:42.982Z,100
2018-04-27T06:03:45.358Z,100
2018-04-27T06:04:47.725Z,100
2018-04-27T06:05:50.488Z,100
2018-04-27T06:06:53.178Z,100
2018-04-27T06:07:55.555Z,100
2018-04-27T06:08:57.931Z,100
2018-04-27T06:10:01.097Z,100
2018-04-27T06:11:03.419Z,100
2018-04-27T06:12:06.194Z,100
2018-04-27T06:13:08.568Z,100
2018-04-27T06:14:11.318Z,100
2018-04-27T06:15:13.691Z,100
2018-04-27T06:16:16.068Z,100
2018-04-27T06:17:18.436Z,100
2018-04-27T06:18:20.818Z,100
2018-04-27T06:19:23.585Z,100
2018-04-27T06:20:25.959Z,100
2018-04-27T06:21:28.625Z,100
2018-04-27T06:22:31.010Z,100
2018-04-27T06:23:33.391Z,100
2018-04-27T06:24:36.063Z,100
2018-04-27T06:25:38.532Z,100
2018-04-27T06:26:41.116Z,100
2018-04-27T06:27:43.501Z,100
2018-04-27T06:28:45.872Z,100
2018-04-27T06:29:48.535Z,100
2018-04-27T06:30:51.195Z,100
2018-04-27T06:31:54.110Z,100
2018-04-27T06:32:56.415Z,100
2018-04-27T06:33:58.796Z,100
2018-04-27T06:35:01.170Z,100
2018-04-27T06:36:03.821Z,100
2018-04-27T06:37:06.486Z,100
2018-04-27T06:38:08.858Z,100
2018-04-27T06:39:11.543Z,100
2018-04-27T06:40:14.197Z,100
2018-04-27T06:41:16.567Z,100
2018-04-27T06:42:18.956Z,100
2018-04-27T06:43:21.620Z,100
2018-04-27T06:44:23.995Z,100
2018-04-27T06:45:26.379Z,100
2018-04-27T06:46:29.042Z,100
2018-04-27T06:47:31.424Z,100
2018-04-27T06:48:33.798Z,100
2018-04-27T06:49:36.460Z,100
2018-04-27T06:50:38.835Z,100
2018-04-27T06:51:41.208Z,100
2018-04-27T06:52:43.585Z,100
2018-04-27T06:53:45.970Z,100
2018-04-27T06:54:48.344Z,100
2018-04-27T06:55:50.726Z,100
2018-04-27T06:56:53.491Z,100
2018-04-27T06:57:55.868Z,100
2018-04-27T06:58:58.250Z,100
2018-04-27T07:00:00.631Z,100
2018-04-27T07:01:03.297Z,100
2018-04-27T07:02:06.262Z,100
2018-04-27T07:03:08.645Z,100
2018-04-27T07:04:11.028Z,100
2018-04-27T07:05:13.451Z,100
2018-04-27T07:06:15.789Z,100
2018-04-27T07:07:18.453Z,100
2018-04-27T07:08:20.843Z,100
2018-04-27T07:09:23.514Z,100
2018-04-27T07:10:25.894Z,100
2018-04-27T07:11:28.295Z,100
2018-04-27T07:12:30.665Z,100
2018-04-27T07:13:33.057Z,100
2018-04-27T07:14:35.451Z,100
2018-04-27T07:15:37.829Z,100
2018-04-27T07:16:40.217Z,100
2018-04-27T07:17:42.594Z,100
2018-04-27T07:18:44.983Z,100
2018-04-27T07:19:47.378Z,100
2018-04-27T07:20:49.749Z,100
2018-04-27T07:21:52.419Z,100
2018-04-27T07:22:55.195Z,100
2018-04-27T07:23:57.592Z,100
2018-04-27T07:24:59.972Z,100
2018-04-27T07:26:02.641Z,100
2018-04-27T07:27:05.008Z,100
2018-04-27T07:28:07.407Z,100
2018-04-27T07:29:10.077Z,100
2018-04-27T07:30:12.458Z,100
2018-04-27T07:31:14.844Z,100
2018-04-27T07:32:17.518Z,100
2018-04-27T07:33:19.911Z,100
2018-04-27T07:34:22.283Z,100
2018-04-27T07:35:24.665Z,100
2018-04-27T07:36:27.049Z,100
2018-04-27T07:37:29.421Z,100
2018-04-27T07:38:31.815Z,100
2018-04-27T07:39:34.207Z,100
2018-04-27T07:40:36.576Z,100
2018-04-27T07:41:39.250Z,100
2018-04-27T07:42:41.634Z,100
2018-04-27T07:43:44.026Z,100
2018-04-27T07:44:46.411Z,100
2018-04-27T07:45:48.794Z,100
2018-04-27T07:46:51.180Z,100
2018-04-27T07:47:53.562Z,100
2018-04-27T07:48:55.939Z,100
2018-04-27T07:49:58.331Z,100
2018-04-27T07:51:00.715Z,100
2018-04-27T07:52:03.096Z,100
2018-04-27T07:53:05.496Z,100
2018-04-27T07:54:07.862Z,100
2018-04-27T07:55:10.251Z,100
2018-04-27T07:56:12.636Z,100
2018-04-27T07:57:15.309Z,100
2018-04-27T07:58:17.702Z,100
2018-04-27T07:59:20.087Z,100
2018-04-27T08:00:22.469Z,100
2018-04-27T08:01:24.850Z,100
2018-04-27T08:02:27.806Z,100
2018-04-27T08:03:30.502Z,100
2018-04-27T08:04:32.880Z,100
2018-04-27T08:05:35.257Z,100
2018-04-27T08:06:37.919Z,100
2018-04-27T08:07:40.299Z,100
2018-04-27T08:08:42.690Z,100
2018-04-27T08:09:45.078Z,100
2018-04-27T08:10:47.451Z,100
2018-04-27T08:11:49.839Z,100
2018-04-27T08:12:52.230Z,100
2018-04-27T08:13:54.621Z,98
2018-04-27T08:14:56.998Z,99
2018-04-27T08:15:59.391Z,97
2018-04-27T08:17:01.773Z,97
2018-04-27T08:18:04.839Z,97
2018-04-27T08:19:07.226Z,94
2018-04-27T08:20:09.878Z,93
2018-04-27T08:21:12.261Z,91
2018-04-27T08:22:14.923Z,90
2018-04-27T08:23:17.300Z,88
2018-04-27T08:24:19.963Z,89
2018-04-27T08:25:22.338Z,88
2018-04-27T08:26:24.726Z,87
2018-04-27T08:27:27.412Z,86
2018-04-27T08:28:30.078Z,86
2018-04-27T08:29:32.463Z,86
2018-04-27T08:30:34.850Z,87
2018-04-27T08:31:37.235Z,87
2018-04-27T08:32:39.618Z,88
2018-04-27T08:33:42.311Z,89
2018-04-27T08:34:44.981Z,87
2018-04-27T08:35:47.372Z,85
2018-04-27T08:36:50.046Z,85
2018-04-27T08:37:52.425Z,84
2018-04-27T08:38:54.825Z,85
2018-04-27T08:39:57.493Z,83
2018-04-27T08:40:59.884Z,81
2018-04-27T08:42:02.566Z,82
2018-04-27T08:43:04.950Z,80
2018-04-27T08:44:07.325Z,78
2018-04-27T08:45:09.721Z,81
2018-04-27T08:46:12.099Z,78
2018-04-27T08:47:14.488Z,79
2018-04-27T08:48:17.190Z,79
2018-04-27T08:49:19.574Z,79
2018-04-27T08:50:22.392Z,77
2018-04-27T08:51:24.984Z,75
2018-04-27T08:52:27.661Z,73
2018-04-27T08:53:30.335Z,74
2018-04-27T08:54:33.234Z,74
2018-04-27T08:55:35.633Z,74
2018-04-27T08:56:38.329Z,75
2018-04-27T08:57:40.779Z,76
2018-04-27T08:58:43.504Z,76
2018-04-27T08:59:47.031Z,78
2018-04-27T09:00:50.337Z,77
2018-04-27T09:01:53.013Z,77
2018-04-27T09:02:55.430Z,78
2018-04-27T09:03:58.105Z,81
2018-04-27T09:05:01.077Z,79
2018-04-27T09:06:04.065Z,77
2018-04-27T09:07:06.482Z,79
2018-04-27T09:08:09.168Z,80
2018-04-27T09:09:11.837Z,80
2018-04-27T09:10:14.277Z,79
2018-04-27T09:11:16.940Z,78
2018-04-27T09:12:19.309Z,80
2018-04-27T09:13:21.980Z,82
2018-04-27T09:14:24.379Z,80
2018-04-27T09:15:26.808Z,80
2018-04-27T09:16:29.241Z,78
2018-04-27T09:17:31.623Z,77
2018-04-27T09:18:34.015Z,76
2018-04-27T09:19:36.725Z,71
2018-04-27T09:20:39.397Z,69
2018-04-27T09:21:42.329Z,72
2018-04-27T09:22:44.638Z,71
2018-04-27T09:23:47.062Z,70
2018-04-27T09:24:49.461Z,71
2018-04-27T09:25:51.863Z,72
2018-04-27T09:26:54.248Z,70
2018-04-27T09:27:56.633Z,70
2018-04-27T09:28:59.040Z,71
2018-04-27T09:30:01.461Z,71
2018-04-27T09:31:04.136Z,69
2018-04-27T09:32:06.556Z,72
2018-04-27T09:33:08.950Z,76
2018-04-27T09:34:11.344Z,75
2018-04-27T09:35:13.745Z,75
2018-04-27T09:36:16.144Z,71
2018-04-27T09:37:18.530Z,68
2018-04-27T09:38:20.926Z,69
2018-04-27T09:39:23.672Z,67
2018-04-27T09:40:26.076Z,67
2018-04-27T09:41:28.491Z,67
2018-04-27T09:42:31.269Z,67
2018-04-27T09:43:33.947Z,69
2018-04-27T09:44:36.342Z,69
2018-04-27T09:45:38.734Z,70
2018-04-27T09:46:41.401Z,71
2018-04-27T09:47:43.785Z,71
2018-04-27T09:48:46.170Z,71
2018-04-27T09:49:48.562Z,67
2018-04-27T09:50:51.045Z,65
2018-04-27T09:51:53.348Z,66
2018-04-27T09:52:55.740Z,65
2018-04-27T09:53:58.709Z,64
2018-04-27T09:55:01.099Z,63
2018-04-27T09:56:03.492Z,61
2018-04-27T09:57:05.882Z,61
2018-04-27T09:58:08.279Z,60
2018-04-27T09:59:10.661Z,60
2018-04-27T10:00:13.062Z,58
2018-04-27T10:01:15.740Z,59
2018-04-27T10:02:18.127Z,59
2018-04-27T10:03:20.529Z,60
2018-04-27T10:04:22.925Z,60
2018-04-27T10:05:25.318Z,59
2018-04-27T10:06:27.711Z,59
2018-04-27T10:07:30.092Z,58
2018-04-27T10:08:32.485Z,58
2018-04-27T10:09:34.894Z,58
2018-04-27T10:10:37.280Z,59
2018-04-27T10:11:39.675Z,55
2018-04-27T10:12:42.341Z,55
2018-04-27T10:13:44.736Z,55
2018-04-27T10:14:47.145Z,55
2018-04-27T10:15:49.538Z,58
2018-04-27T10:16:51.922Z,59
2018-04-27T10:17:54.320Z,56
2018-04-27T10:18:56.712Z,53
2018-04-27T10:19:59.115Z,56
2018-04-27T10:21:01.518Z,54
2018-04-27T10:22:03.899Z,53
2018-04-27T10:23:06.306Z,54
2018-04-27T10:24:08.713Z,53
2018-04-27T10:25:11.379Z,56
2018-04-27T10:26:13.772Z,57
2018-04-27T10:27:16.158Z,54
2018-04-27T10:28:18.553Z,53
2018-04-27T10:29:20.948Z,51
2018-04-27T10:30:23.344Z,51
2018-04-27T10:31:25.749Z,52
2018-04-27T10:32:28.150Z,54
2018-04-27T10:33:30.536Z,55
2018-04-27T10:34:32.932Z,54
2018-04-27T10:35:35.710Z,53
2018-04-27T10:36:38.152Z,55
2018-04-27T10:37:40.493Z,53
2018-04-27T10:38:43.174Z,55
2018-04-27T10:39:45.574Z,54
2018-04-27T10:40:47.986Z,55
2018-04-27T10:41:50.768Z,56
2018-04-27T10:42:53.445Z,54
2018-04-27T10:43:55.845Z,54
2018-04-27T10:44:58.235Z,52
2018-04-27T10:46:00.624Z,55
2018-04-27T10:47:03.024Z,55
2018-04-27T10:48:05.718Z,52
2018-04-27T10:49:08.401Z,55
2018-04-27T10:50:11.640Z,53
2018-04-27T10:51:14.278Z,54
2018-04-27T10:52:16.679Z,54
2018-04-27T10:53:19.080Z,54
2018-04-27T10:54:21.459Z,53
2018-04-27T10:55:23.855Z,52
2018-04-27T10:56:26.532Z,53
2018-04-27T10:57:28.932Z,53
2018-04-27T10:58:31.327Z,52
2018-04-27T10:59:33.734Z,52
2018-04-27T11:00:36.134Z,50
2018-04-27T11:01:38.542Z,49
2018-04-27T11:02:40.935Z,49
2018-04-27T11:03:43.326Z,50
2018-04-27T11:04:45.786Z,51
2018-04-27T11:05:48.109Z,51
2018-04-27T11:06:50.777Z,52
2018-04-27T11:07:53.174Z,55
2018-04-27T11:08:55.564Z,55
2018-04-27T11:09:57.964Z,55
2018-04-27T11:11:00.838Z,52
2018-04-27T11:12:03.491Z,50
2018-04-27T11:13:05.872Z,49
2018-04-27T11:14:08.283Z,50
2018-04-27T11:15:10.671Z,52
2018-04-27T11:16:13.051Z,51
2018-04-27T11:17:15.453Z,52
2018-04-27T11:18:18.132Z,49
2018-04-27T11:19:20.532Z,49
2018-04-27T11:20:23.206Z,48
2018-04-27T11:21:25.600Z,49
2018-04-27T11:22:27.996Z,51
2018-04-27T11:23:30.401Z,52
2018-04-27T11:24:32.794Z,49
2018-04-27T11:25:35.186Z,49
2018-04-27T11:26:37.872Z,49
2018-04-27T11:27:40.267Z,48
2018-04-27T11:28:43.388Z,49
2018-04-27T11:29:46.051Z,47
2018-04-27T11:30:48.438Z,49
2018-04-27T11:31:50.837Z,51
2018-04-27T11:32:53.506Z,50
2018-04-27T11:33:56.278Z,50
2018-04-27T11:34:58.960Z,50
2018-04-27T11:36:01.359Z,44
2018-04-27T11:37:04.415Z,46
2018-04-27T11:38:06.803Z,47
2018-04-27T11:39:09.197Z,48
2018-04-27T11:40:11.598Z,48
2018-04-27T11:41:14.847Z,49
2018-04-27T11:42:17.522Z,45
2018-04-27T11:43:20.203Z,46
2018-04-27T11:44:22.615Z,47
2018-04-27T11:45:25.000Z,48
2018-04-27T11:46:27.398Z,47
2018-04-27T11:47:30.068Z,48
2018-04-27T11:48:32.463Z,49
2018-04-27T11:49:35.250Z,49
2018-04-27T11:50:37.637Z,49
2018-04-27T11:51:40.026Z,50
2018-04-27T11:52:42.723Z,49
2018-04-27T11:53:45.405Z,50
2018-04-27T11:54:47.796Z,48
2018-04-27T11:55:50.189Z,48
2018-04-27T11:56:52.961Z,46
2018-04-27T11:57:55.915Z,47
2018-04-27T11:58:58.309Z,47
2018-04-27T12:00:00.719Z,45
2018-04-27T12:01:03.116Z,45
2018-04-27T12:02:05.525Z,45
2018-04-27T12:03:07.905Z,43
2018-04-27T12:04:10.297Z,44
2018-04-27T12:05:12.701Z,43
2018-04-27T12:06:15.377Z,44
2018-04-27T12:07:17.770Z,43
2018-04-27T12:08:20.242Z,44
2018-04-27T12:09:22.562Z,43
2018-04-27T12:10:24.955Z,43
2018-04-27T12:11:27.366Z,44
2018-04-27T12:12:30.136Z,44
2018-04-27T12:13:32.816Z,44
2018-04-27T12:14:35.210Z,43
2018-04-27T12:15:38.183Z,42
2018-04-27T12:16:40.579Z,45
2018-04-27T12:17:43.278Z,41
2018-04-27T12:18:45.676Z,40
2018-04-27T12:19:48.070Z,40
2018-04-27T12:20:50.472Z,40
2018-04-27T12:21:52.871Z,41
2018-04-27T12:22:55.276Z,41
2018-04-27T12:23:57.668Z,42
2018-04-27T12:25:00.063Z,43
2018-04-27T12:26:02.456Z,43
2018-04-27T12:27:05.140Z,43
2018-04-27T12:28:07.543Z,43
2018-04-27T12:29:09.938Z,42
2018-04-27T12:30:12.330Z,43
2018-04-27T12:31:15.331Z,43
2018-04-27T12:32:17.617Z,42
2018-04-27T12:33:20.020Z,40
2018-04-27T12:34:22.427Z,44
2018-04-27T12:35:24.809Z,41
2018-04-27T12:36:27.667Z,42
2018-04-27T12:37:30.523Z,43
2018-04-27T12:38:32.908Z,43
2018-04-27T12:39:35.303Z,48
2018-04-27T12:40:37.709Z,46
2018-04-27T12:41:40.098Z,47
2018-04-27T12:42:42.491Z,49
2018-04-27T12:43:45.362Z,48
2018-04-27T12:44:47.759Z,49
2018-04-27T12:45:50.163Z,48
2018-04-27T12:46:54.866Z,47
2018-04-27T12:47:57.936Z,47
2018-04-27T12:49:00.765Z,48
2018-04-27T12:50:03.466Z,48
2018-04-27T12:51:05.928Z,49
2018-04-27T12:52:08.754Z,49
2018-04-27T12:53:11.104Z,48
2018-04-27T12:54:13.496Z,48
2018-04-27T12:55:15.919Z,48
2018-04-27T12:56:18.329Z,49
2018-04-27T12:57:20.775Z,49
2018-04-27T12:58:23.607Z,49
2018-04-27T12:59:26.421Z,49
2018-04-27T13:00:28.844Z,49
2018-04-27T13:01:31.382Z,50
2018-04-27T13:02:33.817Z,50
2018-04-27T13:03:37.260Z,49
2018-04-27T13:04:39.931Z,50
2018-04-27T13:05:42.724Z,50
2018-04-27T13:06:45.116Z,48
2018-04-27T13:07:50.323Z,49
2018-04-27T13:08:54.348Z,49
2018-04-27T13:09:57.092Z,48
2018-04-27T13:10:59.864Z,48
2018-04-27T13:12:04.141Z,49
2018-04-27T13:13:07.804Z,49
2018-04-27T13:14:10.511Z,50
2018-04-27T13:15:13.241Z,48
2018-04-27T13:16:16.019Z,49
2018-04-27T13:17:18.670Z,48
2018-04-27T13:18:21.337Z,48
2018-04-27T13:19:23.729Z,47
2018-04-27T13:20:26.420Z,48
2018-04-27T13:21:29.107Z,48
2018-04-27T13:22:32.153Z,47
2018-04-27T13:23:34.550Z,48
2018-04-27T13:24:36.944Z,48
2018-04-27T13:25:39.639Z,48
2018-04-27T13:26:42.311Z,47
2018-04-27T13:27:44.708Z,48
2018-04-27T13:28:47.105Z,48
2018-04-27T13:29:49.775Z,48
2018-04-27T13:30:52.607Z,48
2018-04-27T13:31:55.286Z,48
2018-04-27T13:32:57.680Z,49
2018-04-27T13:34:00.358Z,49
2018-04-27T13:35:02.760Z,50
2018-04-27T13:36:05.428Z,49
2018-04-27T13:37:07.834Z,48
2018-04-27T13:38:10.228Z,49
2018-04-27T13:39:12.616Z,50
2018-04-27T13:40:15.588Z,50
2018-04-27T13:41:18.271Z,50
2018-04-27T13:42:20.669Z,50
2018-04-27T13:43:23.356Z,50
2018-04-27T13:44:25.733Z,50
2018-04-27T13:45:28.800Z,51
2018-04-27T13:46:31.407Z,51
2018-04-27T13:47:33.803Z,51
2018-04-27T13:48:36.575Z,51
2018-04-27T13:49:39.252Z,52
2018-04-27T13:50:41.944Z,50
2018-04-27T13:51:44.634Z,50
2018-04-27T13:52:47.310Z,50
2018-04-27T13:53:49.691Z,51
2018-04-27T13:54:52.091Z,51
2018-04-27T13:55:54.495Z,49
2018-04-27T13:56:57.189Z,50
2018-04-27T13:57:59.608Z,51
2018-04-27T13:59:01.997Z,51
2018-04-27T14:00:04.721Z,51
2018-04-27T14:01:07.067Z,51
2018-04-27T14:02:09.467Z,51
2018-04-27T14:03:11.866Z,51
2018-04-27T14:04:14.651Z,52
2018-04-27T14:05:17.438Z,51
2018-04-27T14:06:20.115Z,51
2018-04-27T14:07:22.513Z,50
2018-04-27T14:08:25.266Z,50
2018-04-27T14:09:27.953Z,50
2018-04-27T14:10:30.341Z,50
2018-04-27T14:11:32.751Z,51
2018-04-27T14:12:36.182Z,50
2018-04-27T14:13:38.583Z,50
2018-04-27T14:14:40.981Z,50
2018-04-27T14:15:43.756Z,51
2018-04-27T14:16:46.151Z,51
2018-04-27T14:17:48.555Z,50
2018-04-27T14:18:50.930Z,50
2018-04-27T14:19:53.341Z,51
2018-04-27T14:20:56.408Z,50
2018-04-27T14:21:59.099Z,50
2018-04-27T14:23:01.487Z,49
2018-04-27T14:24:03.886Z,49
2018-04-27T14:25:06.276Z,49
2018-04-27T14:26:08.675Z,49
2018-04-27T14:27:11.052Z,49
2018-04-27T14:28:13.449Z,49
2018-04-27T14:29:16.163Z,48
2018-04-27T14:30:18.844Z,49
2018-04-27T14:31:21.238Z,48
2018-04-27T14:32:23.626Z,48
2018-04-27T14:33:26.010Z,49